sensor_id;sensor_type;location;lat;lon;timestamp;P1;durP1;ratioP1;P2;durP2;ratioP2
17504;SDS011;8870;50.950;11.762;2023-04-06T00:01:58;2.30;;;2.05;;
17504;SDS011;8870;50.950;11.762;2023-04-06T00:07:29;2.75;;;2.08;;
17504;SDS011;8870;50.950;11.762;2023-04-06T00:12:50;2.42;;;1.80;;
17504;SDS011;8870;50.950;11.762;2023-04-06T00:18:22;3.45;;;2.03;;
17504;SDS011;8870;50.950;11.762;2023-04-06T00:23:41;5.45;;;2.00;;
17504;SDS011;8870;50.950;11.762;2023-04-06T00:29:15;3.30;;;1.95;;
17504;SDS011;8870;50.950;11.762;2023-04-06T00:34:34;3.10;;;2.05;;
17504;SDS011;8870;50.950;11.762;2023-04-06T00:40:06;3.28;;;2.25;;
17504;SDS011;8870;50.950;11.762;2023-04-06T00:45:28;3.10;;;2.40;;
17504;SDS011;8870;50.950;11.762;2023-04-06T00:51:01;3.17;;;2.47;;
17504;SDS011;8870;50.950;11.762;2023-04-06T00:56:20;3.47;;;2.10;;
17504;SDS011;8870;50.950;11.762;2023-04-06T01:01:55;5.13;;;2.42;;
17504;SDS011;8870;50.950;11.762;2023-04-06T01:07:19;3.80;;;2.60;;
17504;SDS011;8870;50.950;11.762;2023-04-06T01:12:56;3.78;;;2.60;;
17504;SDS011;8870;50.950;11.762;2023-04-06T01:18:27;5.72;;;2.30;;
17504;SDS011;8870;50.950;11.762;2023-04-06T01:24:07;3.45;;;2.40;;
17504;SDS011;8870;50.950;11.762;2023-04-06T01:29:50;3.00;;;2.15;;
17504;SDS011;8870;50.950;11.762;2023-04-06T01:35:48;2.83;;;2.20;;
17504;SDS011;8870;50.950;11.762;2023-04-06T01:41:09;2.42;;;2.05;;
17504;SDS011;8870;50.950;11.762;2023-04-06T01:46:42;3.90;;;2.30;;
17504;SDS011;8870;50.950;11.762;2023-04-06T01:52:00;3.72;;;2.30;;
17504;SDS011;8870;50.950;11.762;2023-04-06T01:57:37;4.88;;;2.40;;
17504;SDS011;8870;50.950;11.762;2023-04-06T02:03:06;3.28;;;2.72;;
17504;SDS011;8870;50.950;11.762;2023-04-06T02:08:46;4.13;;;2.40;;
17504;SDS011;8870;50.950;11.762;2023-04-06T02:14:07;2.53;;;2.30;;
17504;SDS011;8870;50.950;11.762;2023-04-06T02:19:40;3.53;;;2.38;;
17504;SDS011;8870;50.950;11.762;2023-04-06T02:24:58;4.38;;;2.70;;
17504;SDS011;8870;50.950;11.762;2023-04-06T02:30:32;2.83;;;2.53;;
17504;SDS011;8870;50.950;11.762;2023-04-06T02:35:52;3.15;;;2.30;;
17504;SDS011;8870;50.950;11.762;2023-04-06T02:41:24;2.55;;;2.30;;
17504;SDS011;8870;50.950;11.762;2023-04-06T02:46:45;3.08;;;2.15;;
17504;SDS011;8870;50.950;11.762;2023-04-06T02:52:19;3.42;;;2.47;;
17504;SDS011;8870;50.950;11.762;2023-04-06T02:57:37;2.47;;;2.15;;
17504;SDS011;8870;50.950;11.762;2023-04-06T03:03:19;3.72;;;2.40;;
17504;SDS011;8870;50.950;11.762;2023-04-06T03:08:43;3.50;;;2.30;;
17504;SDS011;8870;50.950;11.762;2023-04-06T03:14:14;2.72;;;2.15;;
17504;SDS011;8870;50.950;11.762;2023-04-06T03:19:40;3.13;;;2.38;;
17504;SDS011;8870;50.950;11.762;2023-04-06T03:25:13;2.95;;;2.28;;
17504;SDS011;8870;50.950;11.762;2023-04-06T03:30:35;2.63;;;2.30;;
17504;SDS011;8870;50.950;11.762;2023-04-06T03:36:34;3.92;;;2.40;;
17504;SDS011;8870;50.950;11.762;2023-04-06T03:41:55;3.13;;;2.33;;
17504;SDS011;8870;50.950;11.762;2023-04-06T03:47:33;3.30;;;2.30;;
17504;SDS011;8870;50.950;11.762;2023-04-06T03:52:55;3.00;;;2.22;;
17504;SDS011;8870;50.950;11.762;2023-04-06T03:58:27;3.35;;;2.50;;
17504;SDS011;8870;50.950;11.762;2023-04-06T04:04:01;3.25;;;2.30;;
17504;SDS011;8870;50.950;11.762;2023-04-06T04:09:22;4.57;;;2.25;;
17504;SDS011;8870;50.950;11.762;2023-04-06T04:14:53;2.75;;;2.22;;
17504;SDS011;8870;50.950;11.762;2023-04-06T04:20:11;2.97;;;2.55;;
17504;SDS011;8870;50.950;11.762;2023-04-06T04:25:47;4.43;;;2.65;;
17504;SDS011;8870;50.950;11.762;2023-04-06T04:31:06;3.55;;;2.63;;
17504;SDS011;8870;50.950;11.762;2023-04-06T04:36:44;3.78;;;2.72;;
17504;SDS011;8870;50.950;11.762;2023-04-06T04:42:25;3.55;;;2.40;;
17504;SDS011;8870;50.950;11.762;2023-04-06T04:48:03;3.15;;;2.42;;
17504;SDS011;8870;50.950;11.762;2023-04-06T04:59:08;3.58;;;2.35;;
17504;SDS011;8870;50.950;11.762;2023-04-06T05:04:33;3.90;;;2.40;;
17504;SDS011;8870;50.950;11.762;2023-04-06T05:10:07;3.30;;;2.35;;
17504;SDS011;8870;50.950;11.762;2023-04-06T05:15:34;5.60;;;2.25;;
17504;SDS011;8870;50.950;11.762;2023-04-06T05:21:12;2.85;;;2.10;;
17504;SDS011;8870;50.950;11.762;2023-04-06T05:26:39;3.75;;;2.25;;
17504;SDS011;8870;50.950;11.762;2023-04-06T05:32:13;2.83;;;2.35;;
17504;SDS011;8870;50.950;11.762;2023-04-06T05:37:36;2.35;;;2.13;;
17504;SDS011;8870;50.950;11.762;2023-04-06T05:43:08;3.25;;;2.25;;
17504;SDS011;8870;50.950;11.762;2023-04-06T05:48:35;3.72;;;2.20;;
17504;SDS011;8870;50.950;11.762;2023-04-06T05:54:11;2.67;;;2.15;;
17504;SDS011;8870;50.950;11.762;2023-04-06T05:59:34;3.45;;;2.25;;
17504;SDS011;8870;50.950;11.762;2023-04-06T06:05:21;3.17;;;2.22;;
17504;SDS011;8870;50.950;11.762;2023-04-06T06:10:45;4.57;;;2.70;;
17504;SDS011;8870;50.950;11.762;2023-04-06T06:16:17;3.40;;;2.95;;
17504;SDS011;8870;50.950;11.762;2023-04-06T06:21:39;4.63;;;3.00;;
17504;SDS011;8870;50.950;11.762;2023-04-06T06:27:11;4.43;;;2.90;;
17504;SDS011;8870;50.950;11.762;2023-04-06T06:32:29;6.00;;;2.40;;
17504;SDS011;8870;50.950;11.762;2023-04-06T06:38:05;3.88;;;2.70;;
17504;SDS011;8870;50.950;11.762;2023-04-06T06:43:24;4.50;;;2.30;;
17504;SDS011;8870;50.950;11.762;2023-04-06T06:48:56;3.03;;;2.45;;
17504;SDS011;8870;50.950;11.762;2023-04-06T06:54:19;3.60;;;2.50;;
17504;SDS011;8870;50.950;11.762;2023-04-06T06:59:50;3.55;;;2.05;;
17504;SDS011;8870;50.950;11.762;2023-04-06T07:05:08;3.22;;;2.30;;
17504;SDS011;8870;50.950;11.762;2023-04-06T07:10:46;3.08;;;2.03;;
17504;SDS011;8870;50.950;11.762;2023-04-06T07:16:05;3.35;;;2.08;;
17504;SDS011;8870;50.950;11.762;2023-04-06T07:21:38;5.57;;;2.10;;
17504;SDS011;8870;50.950;11.762;2023-04-06T07:26:59;2.42;;;2.22;;
17504;SDS011;8870;50.950;11.762;2023-04-06T07:32:33;2.65;;;1.98;;
17504;SDS011;8870;50.950;11.762;2023-04-06T07:38:15;5.22;;;2.08;;
17504;SDS011;8870;50.950;11.762;2023-04-06T07:43:49;3.72;;;1.92;;
17504;SDS011;8870;50.950;11.762;2023-04-06T07:49:09;3.55;;;1.98;;
17504;SDS011;8870;50.950;11.762;2023-04-06T07:54:43;2.10;;;1.90;;
17504;SDS011;8870;50.950;11.762;2023-04-06T08:00:06;2.88;;;1.98;;
17504;SDS011;8870;50.950;11.762;2023-04-06T08:05:40;4.82;;;2.10;;
17504;SDS011;8870;50.950;11.762;2023-04-06T08:10:58;2.40;;;1.92;;
17504;SDS011;8870;50.950;11.762;2023-04-06T08:16:33;2.25;;;1.92;;
17504;SDS011;8870;50.950;11.762;2023-04-06T08:21:51;2.35;;;1.92;;
17504;SDS011;8870;50.950;11.762;2023-04-06T08:27:24;1.88;;;1.50;;
17504;SDS011;8870;50.950;11.762;2023-04-06T08:32:45;3.03;;;1.90;;
17504;SDS011;8870;50.950;11.762;2023-04-06T08:38:16;2.28;;;1.70;;
17504;SDS011;8870;50.950;11.762;2023-04-06T08:43:35;2.60;;;2.00;;
17504;SDS011;8870;50.950;11.762;2023-04-06T08:49:14;2.00;;;1.80;;
17504;SDS011;8870;50.950;11.762;2023-04-06T08:54:34;2.75;;;2.08;;
17504;SDS011;8870;50.950;11.762;2023-04-06T09:00:07;2.63;;;1.98;;
17504;SDS011;8870;50.950;11.762;2023-04-06T09:05:44;2.75;;;2.17;;
17504;SDS011;8870;50.950;11.762;2023-04-06T09:11:04;3.78;;;2.30;;
17504;SDS011;8870;50.950;11.762;2023-04-06T09:16:40;1.88;;;1.75;;
17504;SDS011;8870;50.950;11.762;2023-04-06T09:22:06;2.30;;;2.05;;
17504;SDS011;8870;50.950;11.762;2023-04-06T09:27:37;2.85;;;1.70;;
17504;SDS011;8870;50.950;11.762;2023-04-06T09:32:57;3.65;;;1.42;;
17504;SDS011;8870;50.950;11.762;2023-04-06T09:38:31;1.73;;;1.27;;
17504;SDS011;8870;50.950;11.762;2023-04-06T09:43:49;1.92;;;1.60;;
17504;SDS011;8870;50.950;11.762;2023-04-06T09:49:22;1.92;;;1.70;;
17504;SDS011;8870;50.950;11.762;2023-04-06T09:54:45;2.72;;;1.50;;
17504;SDS011;8870;50.950;11.762;2023-04-06T10:00:20;4.37;;;1.53;;
17504;SDS011;8870;50.950;11.762;2023-04-06T10:05:54;1.85;;;1.40;;
17504;SDS011;8870;50.950;11.762;2023-04-06T10:11:18;2.15;;;1.60;;
17504;SDS011;8870;50.950;11.762;2023-04-06T10:16:49;2.78;;;1.40;;
17504;SDS011;8870;50.950;11.762;2023-04-06T10:22:08;3.13;;;1.48;;
17504;SDS011;8870;50.950;11.762;2023-04-06T10:27:48;1.63;;;1.42;;
17504;SDS011;8870;50.950;11.762;2023-04-06T10:33:18;2.78;;;1.50;;
17504;SDS011;8870;50.950;11.762;2023-04-06T10:38:56;1.70;;;1.50;;
17504;SDS011;8870;50.950;11.762;2023-04-06T10:44:22;2.60;;;1.50;;
17504;SDS011;8870;50.950;11.762;2023-04-06T10:49:55;3.50;;;1.63;;
17504;SDS011;8870;50.950;11.762;2023-04-06T10:55:13;1.88;;;1.20;;
17504;SDS011;8870;50.950;11.762;2023-04-06T11:00:50;2.97;;;1.60;;
17504;SDS011;8870;50.950;11.762;2023-04-06T11:06:09;1.83;;;1.40;;
17504;SDS011;8870;50.950;11.762;2023-04-06T11:11:41;1.88;;;1.40;;
17504;SDS011;8870;50.950;11.762;2023-04-06T11:17:02;1.80;;;1.13;;
17504;SDS011;8870;50.950;11.762;2023-04-06T11:22:34;2.55;;;1.38;;
17504;SDS011;8870;50.950;11.762;2023-04-06T11:27:52;1.30;;;1.20;;
17504;SDS011;8870;50.950;11.762;2023-04-06T11:33:28;2.88;;;1.20;;
17504;SDS011;8870;50.950;11.762;2023-04-06T11:38:46;2.05;;;1.30;;
17504;SDS011;8870;50.950;11.762;2023-04-06T11:44:27;2.50;;;1.38;;
17504;SDS011;8870;50.950;11.762;2023-04-06T11:49:50;2.92;;;1.20;;
17504;SDS011;8870;50.950;11.762;2023-04-06T11:55:22;1.90;;;1.30;;
17504;SDS011;8870;50.950;11.762;2023-04-06T12:00:49;2.13;;;1.20;;
17504;SDS011;8870;50.950;11.762;2023-04-06T12:06:24;1.63;;;1.30;;
17504;SDS011;8870;50.950;11.762;2023-04-06T12:11:42;2.92;;;1.30;;
17504;SDS011;8870;50.950;11.762;2023-04-06T12:17:15;3.67;;;1.30;;
17504;SDS011;8870;50.950;11.762;2023-04-06T12:22:36;1.92;;;1.20;;
17504;SDS011;8870;50.950;11.762;2023-04-06T12:28:07;1.55;;;1.20;;
17504;SDS011;8870;50.950;11.762;2023-04-06T12:33:25;1.38;;;1.27;;
17504;SDS011;8870;50.950;11.762;2023-04-06T12:38:59;1.55;;;1.27;;
17504;SDS011;8870;50.950;11.762;2023-04-06T12:44:18;1.27;;;1.17;;
17504;SDS011;8870;50.950;11.762;2023-04-06T12:49:50;1.52;;;1.17;;
17504;SDS011;8870;50.950;11.762;2023-04-06T12:55:11;2.15;;;1.30;;
17504;SDS011;8870;50.950;11.762;2023-04-06T13:00:43;2.80;;;1.10;;
17504;SDS011;8870;50.950;11.762;2023-04-06T13:06:15;2.10;;;1.10;;
17504;SDS011;8870;50.950;11.762;2023-04-06T13:11:37;1.67;;;1.30;;
17504;SDS011;8870;50.950;11.762;2023-04-06T13:17:08;3.10;;;1.20;;
17504;SDS011;8870;50.950;11.762;2023-04-06T13:22:26;1.42;;;1.00;;
17504;SDS011;8870;50.950;11.762;2023-04-06T13:28:01;2.08;;;1.20;;
17504;SDS011;8870;50.950;11.762;2023-04-06T13:33:19;1.20;;;1.10;;
17504;SDS011;8870;50.950;11.762;2023-04-06T13:38:52;1.20;;;0.98;;
17504;SDS011;8870;50.950;11.762;2023-04-06T13:44:13;2.17;;;1.00;;
17504;SDS011;8870;50.950;11.762;2023-04-06T13:49:44;1.40;;;1.20;;
17504;SDS011;8870;50.950;11.762;2023-04-06T13:55:04;1.20;;;1.10;;
17504;SDS011;8870;50.950;11.762;2023-04-06T14:00:39;1.52;;;1.15;;
17504;SDS011;8870;50.950;11.762;2023-04-06T14:06:11;2.97;;;1.10;;
17504;SDS011;8870;50.950;11.762;2023-04-06T14:11:38;4.95;;;1.02;;
17504;SDS011;8870;50.950;11.762;2023-04-06T14:17:12;1.00;;;1.00;;
17504;SDS011;8870;50.950;11.762;2023-04-06T14:22:30;2.30;;;0.95;;
17504;SDS011;8870;50.950;11.762;2023-04-06T14:28:01;3.00;;;1.08;;
17504;SDS011;8870;50.950;11.762;2023-04-06T14:33:22;1.63;;;1.00;;
17504;SDS011;8870;50.950;11.762;2023-04-06T14:38:53;1.42;;;1.00;;
17504;SDS011;8870;50.950;11.762;2023-04-06T14:44:11;2.33;;;0.93;;
17504;SDS011;8870;50.950;11.762;2023-04-06T14:49:45;1.20;;;0.90;;
17504;SDS011;8870;50.950;11.762;2023-04-06T14:55:04;1.17;;;1.00;;
17504;SDS011;8870;50.950;11.762;2023-04-06T15:00:36;1.17;;;1.02;;
17504;SDS011;8870;50.950;11.762;2023-04-06T15:06:13;1.00;;;0.90;;
17504;SDS011;8870;50.950;11.762;2023-04-06T15:11:34;1.83;;;1.17;;
17504;SDS011;8870;50.950;11.762;2023-04-06T15:17:06;2.13;;;0.90;;
17504;SDS011;8870;50.950;11.762;2023-04-06T15:22:27;2.15;;;1.00;;
17504;SDS011;8870;50.950;11.762;2023-04-06T15:27:58;1.73;;;1.13;;
17504;SDS011;8870;50.950;11.762;2023-04-06T15:33:16;1.20;;;1.00;;
17504;SDS011;8870;50.950;11.762;2023-04-06T15:38:51;1.33;;;1.20;;
17504;SDS011;8870;50.950;11.762;2023-04-06T15:44:09;1.33;;;1.10;;
17504;SDS011;8870;50.950;11.762;2023-04-06T15:49:40;2.13;;;1.10;;
17504;SDS011;8870;50.950;11.762;2023-04-06T15:55:07;1.50;;;1.10;;
17504;SDS011;8870;50.950;11.762;2023-04-06T16:00:39;1.52;;;1.17;;
17504;SDS011;8870;50.950;11.762;2023-04-06T16:06:10;1.95;;;1.05;;
17504;SDS011;8870;50.950;11.762;2023-04-06T16:11:31;1.80;;;1.15;;
17504;SDS011;8870;50.950;11.762;2023-04-06T16:17:02;1.13;;;0.93;;
17504;SDS011;8870;50.950;11.762;2023-04-06T16:22:20;1.00;;;0.90;;
17504;SDS011;8870;50.950;11.762;2023-04-06T16:27:55;1.30;;;1.20;;
17504;SDS011;8870;50.950;11.762;2023-04-06T16:33:13;2.58;;;1.40;;
17504;SDS011;8870;50.950;11.762;2023-04-06T16:38:45;2.05;;;1.10;;
17504;SDS011;8870;50.950;11.762;2023-04-06T16:44:07;3.85;;;1.33;;
17504;SDS011;8870;50.950;11.762;2023-04-06T16:49:38;1.35;;;1.20;;
17504;SDS011;8870;50.950;11.762;2023-04-06T16:54:56;1.30;;;1.20;;
17504;SDS011;8870;50.950;11.762;2023-04-06T17:00:32;1.83;;;1.10;;
17504;SDS011;8870;50.950;11.762;2023-04-06T17:06:09;1.38;;;1.23;;
17504;SDS011;8870;50.950;11.762;2023-04-06T17:11:27;2.30;;;1.40;;
17504;SDS011;8870;50.950;11.762;2023-04-06T17:17:03;1.30;;;1.10;;
17504;SDS011;8870;50.950;11.762;2023-04-06T17:22:21;1.50;;;1.23;;
17504;SDS011;8870;50.950;11.762;2023-04-06T17:27:52;2.08;;;1.50;;
17504;SDS011;8870;50.950;11.762;2023-04-06T17:33:13;1.50;;;1.30;;
17504;SDS011;8870;50.950;11.762;2023-04-06T17:38:45;3.72;;;1.50;;
17504;SDS011;8870;50.950;11.762;2023-04-06T17:44:03;2.33;;;1.60;;
17504;SDS011;8870;50.950;11.762;2023-04-06T17:49:37;3.03;;;1.40;;
17504;SDS011;8870;50.950;11.762;2023-04-06T17:54:55;3.97;;;1.90;;
17504;SDS011;8870;50.950;11.762;2023-04-06T18:00:26;3.95;;;1.90;;
17504;SDS011;8870;50.950;11.762;2023-04-06T18:06:07;2.63;;;2.10;;
17504;SDS011;8870;50.950;11.762;2023-04-06T18:11:25;3.60;;;1.90;;
17504;SDS011;8870;50.950;11.762;2023-04-06T18:16:57;3.78;;;1.85;;
17504;SDS011;8870;50.950;11.762;2023-04-06T18:22:18;5.55;;;2.35;;
17504;SDS011;8870;50.950;11.762;2023-04-06T18:27:49;3.00;;;2.33;;
17504;SDS011;8870;50.950;11.762;2023-04-06T18:33:07;3.95;;;2.05;;
17504;SDS011;8870;50.950;11.762;2023-04-06T18:38:42;4.00;;;2.00;;
17504;SDS011;8870;50.950;11.762;2023-04-06T18:44:02;3.25;;;1.95;;
17504;SDS011;8870;50.950;11.762;2023-04-06T18:49:33;3.30;;;2.20;;
17504;SDS011;8870;50.950;11.762;2023-04-06T18:54:54;5.20;;;2.30;;
17504;SDS011;8870;50.950;11.762;2023-04-06T19:00:25;3.57;;;2.10;;
17504;SDS011;8870;50.950;11.762;2023-04-06T19:05:43;2.63;;;2.00;;
17504;SDS011;8870;50.950;11.762;2023-04-06T19:11:17;3.97;;;2.35;;
17504;SDS011;8870;50.950;11.762;2023-04-06T19:16:36;2.90;;;2.20;;
17504;SDS011;8870;50.950;11.762;2023-04-06T19:22:12;6.38;;;2.50;;
17504;SDS011;8870;50.950;11.762;2023-04-06T19:27:33;2.80;;;2.20;;
17504;SDS011;8870;50.950;11.762;2023-04-06T19:33:05;2.38;;;2.17;;
17504;SDS011;8870;50.950;11.762;2023-04-06T19:38:23;3.65;;;2.30;;
17504;SDS011;8870;50.950;11.762;2023-04-06T19:43:58;4.75;;;2.45;;
17504;SDS011;8870;50.950;11.762;2023-04-06T19:49:16;3.88;;;2.25;;
17504;SDS011;8870;50.950;11.762;2023-04-06T19:54:48;3.72;;;2.60;;
17504;SDS011;8870;50.950;11.762;2023-04-06T20:00:10;3.67;;;2.55;;
17504;SDS011;8870;50.950;11.762;2023-04-06T20:05:42;3.08;;;2.70;;
17504;SDS011;8870;50.950;11.762;2023-04-06T20:11:01;4.80;;;2.40;;
17504;SDS011;8870;50.950;11.762;2023-04-06T20:16:37;3.03;;;2.53;;
17504;SDS011;8870;50.950;11.762;2023-04-06T20:21:55;4.65;;;2.90;;
17504;SDS011;8870;50.950;11.762;2023-04-06T20:27:26;4.47;;;2.78;;
17504;SDS011;8870;50.950;11.762;2023-04-06T20:32:47;4.90;;;2.63;;
17504;SDS011;8870;50.950;11.762;2023-04-06T20:38:18;4.90;;;2.60;;
17504;SDS011;8870;50.950;11.762;2023-04-06T20:43:40;3.45;;;2.80;;
17504;SDS011;8870;50.950;11.762;2023-04-06T20:49:14;3.95;;;2.95;;
17504;SDS011;8870;50.950;11.762;2023-04-06T20:54:35;3.53;;;2.80;;
17504;SDS011;8870;50.950;11.762;2023-04-06T21:00:08;3.58;;;2.92;;
17504;SDS011;8870;50.950;11.762;2023-04-06T21:05:42;3.53;;;3.22;;
17504;SDS011;8870;50.950;11.762;2023-04-06T21:11:06;4.45;;;3.17;;
17504;SDS011;8870;50.950;11.762;2023-04-06T21:16:37;4.20;;;3.20;;
17504;SDS011;8870;50.950;11.762;2023-04-06T21:21:58;3.92;;;3.10;;
17504;SDS011;8870;50.950;11.762;2023-04-06T21:27:29;6.13;;;3.75;;
17504;SDS011;8870;50.950;11.762;2023-04-06T21:32:47;6.15;;;3.42;;
17504;SDS011;8870;50.950;11.762;2023-04-06T21:38:21;6.03;;;3.45;;
17504;SDS011;8870;50.950;11.762;2023-04-06T21:43:40;4.22;;;3.25;;
17504;SDS011;8870;50.950;11.762;2023-04-06T21:49:11;3.75;;;3.35;;
17504;SDS011;8870;50.950;11.762;2023-04-06T21:54:35;4.15;;;3.58;;
17504;SDS011;8870;50.950;11.762;2023-04-06T22:00:07;5.10;;;3.58;;
17504;SDS011;8870;50.950;11.762;2023-04-06T22:05:25;4.25;;;3.70;;
17504;SDS011;8870;50.950;11.762;2023-04-06T22:10:59;4.60;;;3.60;;
17504;SDS011;8870;50.950;11.762;2023-04-06T22:16:35;4.15;;;3.60;;
17504;SDS011;8870;50.950;11.762;2023-04-06T22:21:53;5.18;;;3.72;;
17504;SDS011;8870;50.950;11.762;2023-04-06T22:27:28;5.57;;;3.63;;
17504;SDS011;8870;50.950;11.762;2023-04-06T22:32:46;4.35;;;3.58;;
17504;SDS011;8870;50.950;11.762;2023-04-06T22:38:17;5.00;;;3.85;;
17504;SDS011;8870;50.950;11.762;2023-04-06T22:43:38;5.40;;;3.40;;
17504;SDS011;8870;50.950;11.762;2023-04-06T22:49:09;4.20;;;3.63;;
17504;SDS011;8870;50.950;11.762;2023-04-06T22:54:28;3.72;;;3.40;;
17504;SDS011;8870;50.950;11.762;2023-04-06T23:00:02;3.83;;;3.40;;
17504;SDS011;8870;50.950;11.762;2023-04-06T23:05:22;3.83;;;3.40;;
17504;SDS011;8870;50.950;11.762;2023-04-06T23:10:53;5.22;;;3.53;;
17504;SDS011;8870;50.950;11.762;2023-04-06T23:16:14;4.75;;;3.40;;
17504;SDS011;8870;50.950;11.762;2023-04-06T23:21:46;4.32;;;3.55;;
17504;SDS011;8870;50.950;11.762;2023-04-06T23:27:05;4.40;;;3.60;;
17504;SDS011;8870;50.950;11.762;2023-04-06T23:32:39;4.45;;;3.78;;
17504;SDS011;8870;50.950;11.762;2023-04-06T23:37:58;5.78;;;3.78;;
17504;SDS011;8870;50.950;11.762;2023-04-06T23:43:29;5.35;;;4.22;;
17504;SDS011;8870;50.950;11.762;2023-04-06T23:48:50;5.10;;;3.63;;
17504;SDS011;8870;50.950;11.762;2023-04-06T23:54:21;5.25;;;4.30;;
17504;SDS011;8870;50.950;11.762;2023-04-06T23:59:40;6.13;;;3.97;;
